createdAt,value
2018-03-17T00:01:46.406Z,-11.30
2018-03-17T00:04:13.168Z,-11.30
2018-03-17T00:06:40.860Z,-11.50
2018-03-17T00:09:07.789Z,-11.50
2018-03-17T00:11:34.943Z,-11.60
2018-03-17T00:14:02.018Z,-11.60
2018-03-17T00:16:28.744Z,-11.60
2018-03-17T00:18:56.519Z,-11.30
2018-03-17T00:21:24.287Z,-11.30
2018-03-17T00:23:51.338Z,-11.30
2018-03-17T00:26:18.186Z,-11.30
2018-03-17T00:28:45.240Z,-11.40
2018-03-17T00:31:13.112Z,-11.50
2018-03-17T00:33:39.795Z,-11.50
2018-03-17T00:36:06.506Z,-11.70
2018-03-17T00:38:33.557Z,-11.70
2018-03-17T00:41:00.711Z,-11.70
2018-03-17T00:43:28.279Z,-11.70
2018-03-17T00:45:55.428Z,-11.70
2018-03-17T00:48:22.486Z,-11.70
2018-03-17T00:50:49.438Z,-11.70
2018-03-17T00:53:16.594Z,-11.70
2018-03-17T00:55:43.340Z,-11.80
2018-03-17T00:58:10.906Z,-11.90
2018-03-17T01:00:37.594Z,-11.90
2018-03-17T01:03:04.390Z,-11.70
2018-03-17T01:05:31.221Z,-11.80
2018-03-17T01:07:58.200Z,-11.80
2018-03-17T01:10:26.277Z,-12.00
2018-03-17T01:12:53.440Z,-12.20
2018-03-17T01:15:20.258Z,-12.20
2018-03-17T01:17:48.155Z,-12.20
2018-03-17T01:20:15.413Z,-12.30
2018-03-17T01:22:43.094Z,-12.30
2018-03-17T01:25:09.931Z,-12.30
2018-03-17T01:27:36.982Z,-12.40
2018-03-17T01:30:03.830Z,-12.40
2018-03-17T01:32:30.987Z,-12.40
2018-03-17T01:34:58.235Z,-12.30
2018-03-17T01:37:25.005Z,-12.10
2018-03-17T01:39:52.048Z,-12.10
2018-03-17T01:42:25.943Z,-12.20
2018-03-17T01:44:52.898Z,-12.40
2018-03-17T01:47:20.370Z,-12.10
2018-03-17T01:49:48.242Z,-12.20
2018-03-17T01:52:15.092Z,-12.10
2018-03-17T01:54:42.352Z,-12.00
2018-03-17T01:57:09.055Z,-11.80
2018-03-17T01:59:36.357Z,-11.70
2018-03-17T02:02:03.614Z,-11.60
2018-03-17T02:04:31.281Z,-11.70
2018-03-17T02:06:58.412Z,-11.70
2018-03-17T02:09:25.890Z,-11.80
2018-03-17T02:11:53.440Z,-11.90
2018-03-17T02:14:22.160Z,-11.80
2018-03-17T02:16:48.902Z,-11.80
2018-03-17T02:19:15.623Z,-11.80
2018-03-17T02:21:42.805Z,-11.70
2018-03-17T02:24:09.656Z,-11.60
2018-03-17T02:26:36.400Z,-11.60
2018-03-17T02:29:03.252Z,-11.70
2018-03-17T02:31:30.114Z,-11.70
2018-03-17T02:33:57.257Z,-11.80
2018-03-17T02:36:24.416Z,-11.70
2018-03-17T02:38:51.568Z,-11.90
2018-03-17T02:41:18.404Z,-11.80
2018-03-17T02:43:45.271Z,-11.90
2018-03-17T02:46:12.922Z,-12.00
2018-03-17T02:48:40.080Z,-12.00
2018-03-17T02:51:06.836Z,-12.10
2018-03-17T02:53:33.893Z,-12.20
2018-03-17T02:56:01.026Z,-12.30
2018-03-17T02:58:28.496Z,-12.40
2018-03-17T03:00:56.485Z,-12.40
2018-03-17T03:03:23.230Z,-12.40
2018-03-17T03:05:50.180Z,-12.50
2018-03-17T03:08:17.542Z,-12.50
2018-03-17T03:10:44.379Z,-12.50
2018-03-17T03:13:11.242Z,-12.70
2018-03-17T03:15:38.907Z,-12.70
2018-03-17T03:18:06.882Z,-12.70
2018-03-17T03:20:33.629Z,-12.70
2018-03-17T03:23:01.512Z,-13.00
2018-03-17T03:25:28.656Z,-13.00
2018-03-17T03:27:55.380Z,-13.20
2018-03-17T03:30:22.150Z,-13.30
2018-03-17T03:32:49.203Z,-13.30
2018-03-17T03:35:16.267Z,-13.10
2018-03-17T03:37:43.209Z,-13.00
2018-03-17T03:40:10.059Z,-13.10
2018-03-17T03:42:36.805Z,-13.20
2018-03-17T03:45:03.732Z,-13.20
2018-03-17T03:47:32.239Z,-13.10
2018-03-17T03:49:59.679Z,-13.20
2018-03-17T03:52:26.555Z,-13.20
2018-03-17T03:55:00.360Z,-13.20
2018-03-17T03:57:27.213Z,-13.40
2018-03-17T03:59:54.059Z,-13.40
2018-03-17T04:02:20.732Z,-13.40
2018-03-17T04:04:47.654Z,-13.20
2018-03-17T04:07:14.376Z,-13.10
2018-03-17T04:09:42.683Z,-13.20
2018-03-17T04:12:09.941Z,-13.30
2018-03-17T04:14:37.895Z,-13.20
2018-03-17T04:17:05.687Z,-13.20
2018-03-17T04:19:33.660Z,-13.30
2018-03-17T04:22:00.920Z,-13.30
2018-03-17T04:24:27.743Z,-13.20
2018-03-17T04:26:54.516Z,-13.40
2018-03-17T04:29:21.465Z,-13.40
2018-03-17T04:31:49.849Z,-13.50
2018-03-17T04:34:16.601Z,-13.60
2018-03-17T04:36:43.961Z,-13.50
2018-03-17T04:39:11.319Z,-13.60
2018-03-17T04:41:38.067Z,-13.60
2018-03-17T04:44:04.812Z,-13.60
2018-03-17T04:46:31.563Z,-13.70
2018-03-17T04:48:58.410Z,-13.80
2018-03-17T04:51:25.155Z,-13.90
2018-03-17T04:53:52.901Z,-13.80
2018-03-17T04:56:20.536Z,-13.70
2018-03-17T04:58:47.646Z,-13.70
2018-03-17T05:01:14.399Z,-13.60
2018-03-17T05:03:41.549Z,-13.70
2018-03-17T05:06:08.706Z,-13.70
2018-03-17T05:08:35.550Z,-13.70
2018-03-17T05:11:02.606Z,-13.70
2018-03-17T05:13:29.458Z,-13.50
2018-03-17T05:15:56.202Z,-13.40
2018-03-17T05:18:23.258Z,-13.40
2018-03-17T05:20:50.006Z,-13.30
2018-03-17T05:23:17.160Z,-13.10
2018-03-17T05:25:44.316Z,-13.20
2018-03-17T05:28:11.453Z,-13.10
2018-03-17T05:30:39.240Z,-13.10
2018-03-17T05:33:07.012Z,-12.90
2018-03-17T05:35:33.772Z,-13.00
2018-03-17T05:38:02.139Z,-12.90
2018-03-17T05:40:29.094Z,-12.90
2018-03-17T05:42:56.148Z,-12.80
2018-03-17T05:45:23.710Z,-12.80
2018-03-17T05:47:50.763Z,-12.80
2018-03-17T05:50:17.510Z,-12.80
2018-03-17T05:52:45.164Z,-12.60
2018-03-17T05:55:11.928Z,-12.40
2018-03-17T05:57:38.671Z,-12.50
2018-03-17T06:00:05.422Z,-12.20
2018-03-17T06:02:32.779Z,-12.00
2018-03-17T06:04:59.833Z,-11.80
2018-03-17T06:07:27.090Z,-11.60
2018-03-17T06:09:54.555Z,-11.00
2018-03-17T06:12:22.196Z,-10.70
2018-03-17T06:14:49.173Z,-10.80
2018-03-17T06:17:16.204Z,-10.60
2018-03-17T06:19:43.256Z,-10.30
2018-03-17T06:22:10.745Z,-10.00
2018-03-17T06:24:37.493Z,-10.10
2018-03-17T06:27:04.440Z,-9.90
2018-03-17T06:29:32.108Z,-9.70
2018-03-17T06:31:59.060Z,-9.60
2018-03-17T06:34:25.908Z,-9.50
2018-03-17T06:36:53.065Z,-9.30
2018-03-17T06:39:19.916Z,-9.10
2018-03-17T06:41:47.788Z,-9.00
2018-03-17T06:44:14.840Z,-9.00
2018-03-17T06:46:41.803Z,-8.90
2018-03-17T06:49:09.256Z,-8.50
2018-03-17T06:51:36.000Z,-8.60
2018-03-17T06:54:03.055Z,-8.40
2018-03-17T06:56:31.525Z,-8.20
2018-03-17T06:58:59.005Z,-8.10
2018-03-17T07:01:26.276Z,-7.80
2018-03-17T07:03:53.100Z,-7.70
2018-03-17T07:06:20.870Z,-7.60
2018-03-17T07:08:47.628Z,-7.30
2018-03-17T07:11:14.684Z,-7.10
2018-03-17T07:13:41.444Z,-7.00
2018-03-17T07:16:08.291Z,-6.70
2018-03-17T07:18:35.129Z,-6.50
2018-03-17T07:21:02.999Z,-5.70
2018-03-17T07:23:29.953Z,-4.00
2018-03-17T07:25:56.619Z,-2.40
2018-03-17T07:28:23.534Z,0.00
2018-03-17T07:30:50.279Z,0.90
2018-03-17T07:33:17.557Z,-0.10
2018-03-17T07:35:45.321Z,0.40
2018-03-17T07:38:12.000Z,-0.30
2018-03-17T07:40:38.871Z,0.20
2018-03-17T07:43:06.381Z,0.20
2018-03-17T07:45:34.150Z,0.20
2018-03-17T07:48:00.977Z,-0.50
2018-03-17T07:50:29.279Z,-1.70
2018-03-17T07:52:57.052Z,-1.70
2018-03-17T07:55:23.900Z,-2.50
2018-03-17T07:57:52.590Z,-2.70
2018-03-17T08:00:20.258Z,-2.70
2018-03-17T08:02:47.212Z,-2.70
2018-03-17T08:05:13.900Z,-2.50
2018-03-17T08:07:40.560Z,-1.90
2018-03-17T08:10:08.784Z,-1.20
2018-03-17T08:12:35.527Z,-0.90
2018-03-17T08:15:02.681Z,0.30
2018-03-17T08:17:30.236Z,0.90
2018-03-17T08:20:04.156Z,1.40
2018-03-17T08:22:31.209Z,1.20
2018-03-17T08:24:58.240Z,0.10
2018-03-17T08:27:26.239Z,-0.50
2018-03-17T08:29:53.498Z,-0.50
2018-03-17T08:32:20.761Z,0.10
2018-03-17T08:34:47.607Z,-0.20
2018-03-17T08:37:14.558Z,-0.80
2018-03-17T08:39:41.305Z,-1.00
2018-03-17T08:42:08.091Z,-1.30
2018-03-17T08:44:34.820Z,-1.20
2018-03-17T08:47:02.875Z,-0.70
2018-03-17T08:49:29.907Z,0.20
2018-03-17T08:51:57.677Z,-0.40
2018-03-17T08:54:25.504Z,-0.40
2018-03-17T08:56:53.338Z,-0.40
2018-03-17T08:59:21.007Z,0.30
2018-03-17T09:01:48.573Z,0.30
2018-03-17T09:04:15.546Z,0.80
2018-03-17T09:06:42.271Z,1.30
2018-03-17T09:09:09.155Z,3.50
2018-03-17T09:11:35.822Z,2.40
2018-03-17T09:14:03.639Z,2.70
2018-03-17T09:16:31.610Z,2.60
2018-03-17T09:18:59.120Z,5.30
2018-03-17T09:21:27.069Z,5.30
2018-03-17T09:23:54.462Z,6.70
2018-03-17T09:26:21.164Z,7.20
2018-03-17T09:28:48.101Z,6.70
2018-03-17T09:31:15.815Z,4.50
2018-03-17T09:33:44.453Z,5.20
2018-03-17T09:36:11.305Z,5.20
2018-03-17T09:38:38.880Z,6.00
2018-03-17T09:41:05.841Z,4.10
2018-03-17T09:43:34.419Z,2.80
2018-03-17T09:46:01.474Z,2.80
2018-03-17T09:48:28.833Z,2.50
2018-03-17T09:50:56.502Z,2.20
2018-03-17T09:53:23.702Z,2.20
2018-03-17T09:55:51.372Z,1.60
2018-03-17T09:58:19.160Z,1.90
2018-03-17T10:00:46.258Z,2.20
2018-03-17T10:03:14.111Z,2.20
2018-03-17T10:05:40.868Z,1.10
2018-03-17T10:08:07.679Z,1.10
2018-03-17T10:10:34.979Z,0.50
2018-03-17T10:13:01.722Z,0.00
2018-03-17T10:15:28.780Z,0.40
2018-03-17T10:17:55.524Z,0.20
2018-03-17T10:20:22.433Z,0.10
2018-03-17T10:22:50.149Z,1.30
2018-03-17T10:25:17.708Z,0.40
2018-03-17T10:27:44.456Z,0.30
2018-03-17T10:30:11.202Z,0.30
2018-03-17T10:32:44.805Z,0.10
2018-03-17T10:35:12.064Z,0.20
2018-03-17T10:37:38.809Z,0.30
2018-03-17T10:40:05.865Z,0.30
2018-03-17T10:42:32.925Z,0.90
2018-03-17T10:45:00.076Z,0.50
2018-03-17T10:47:27.336Z,0.70
2018-03-17T10:49:54.079Z,0.50
2018-03-17T10:52:21.131Z,1.10
2018-03-17T10:54:48.185Z,1.30
2018-03-17T10:57:15.135Z,0.80
2018-03-17T10:59:42.189Z,0.60
2018-03-17T11:02:10.001Z,0.50
2018-03-17T11:04:37.830Z,0.90
2018-03-17T11:07:05.601Z,1.90
2018-03-17T11:09:33.111Z,1.40
2018-03-17T11:11:59.917Z,1.30
2018-03-17T11:14:26.769Z,1.40
2018-03-17T11:16:53.661Z,0.80
2018-03-17T11:19:20.562Z,0.30
2018-03-17T11:21:48.128Z,0.50
2018-03-17T11:24:14.876Z,0.90
2018-03-17T11:26:42.033Z,0.50
2018-03-17T11:29:08.780Z,0.30
2018-03-17T11:31:35.526Z,0.70
2018-03-17T11:34:02.375Z,0.90
2018-03-17T11:36:29.222Z,0.20
2018-03-17T11:38:56.152Z,0.60
2018-03-17T11:41:23.745Z,0.10
2018-03-17T11:43:51.610Z,0.20
2018-03-17T11:46:18.460Z,0.40
2018-03-17T11:48:45.183Z,0.10
2018-03-17T11:51:12.058Z,-0.10
2018-03-17T11:53:39.932Z,0.00
2018-03-17T11:56:07.599Z,0.40
2018-03-17T11:58:34.648Z,0.50
2018-03-17T12:01:01.705Z,0.10
2018-03-17T12:03:28.557Z,0.30
2018-03-17T12:05:55.299Z,0.60
2018-03-17T12:08:22.557Z,1.00
2018-03-17T12:10:50.328Z,1.10
2018-03-17T12:13:17.483Z,1.10
2018-03-17T12:15:45.356Z,1.50
2018-03-17T12:18:12.512Z,1.80
2018-03-17T12:20:39.565Z,1.30
2018-03-17T12:23:08.145Z,1.00
2018-03-17T12:25:35.208Z,1.00
2018-03-17T12:28:02.876Z,0.30
2018-03-17T12:30:31.056Z,0.40
2018-03-17T12:32:57.775Z,0.60
2018-03-17T12:35:26.082Z,-0.20
2018-03-17T12:37:53.855Z,-0.20
2018-03-17T12:40:21.710Z,-0.50
2018-03-17T12:42:48.269Z,-0.30
2018-03-17T12:45:15.015Z,0.10
2018-03-17T12:47:41.863Z,-0.10
2018-03-17T12:50:09.736Z,-0.20
2018-03-17T12:52:36.461Z,-0.40
2018-03-17T12:55:03.229Z,-0.50
2018-03-17T12:57:30.386Z,-0.40
2018-03-17T12:59:57.131Z,0.30
2018-03-17T13:02:25.755Z,0.90
2018-03-17T13:04:53.194Z,0.40
2018-03-17T13:07:20.765Z,0.50
2018-03-17T13:09:47.699Z,0.20
2018-03-17T13:12:15.264Z,0.30
2018-03-17T13:14:42.423Z,0.40
2018-03-17T13:17:09.579Z,0.50
2018-03-17T13:19:36.531Z,0.40
2018-03-17T13:22:03.272Z,0.10
2018-03-17T13:24:29.996Z,0.20
2018-03-17T13:27:10.274Z,-0.30
2018-03-17T13:29:37.231Z,-0.40
2018-03-17T13:32:04.384Z,-0.20
2018-03-17T13:34:31.129Z,-0.30
2018-03-17T13:37:10.770Z,-0.30
2018-03-17T13:39:37.860Z,-0.70
2018-03-17T13:42:05.389Z,-0.70
2018-03-17T13:44:32.138Z,-0.80
2018-03-17T13:46:59.883Z,-0.70
2018-03-17T13:49:29.623Z,-0.40
2018-03-17T13:51:56.783Z,-0.40
2018-03-17T13:54:23.728Z,-0.20
2018-03-17T13:56:50.365Z,0.10
2018-03-17T13:59:17.264Z,0.30
2018-03-17T14:01:44.069Z,0.40
2018-03-17T14:04:10.919Z,-0.10
2018-03-17T14:06:38.073Z,-0.30
2018-03-17T14:09:05.536Z,-0.30
2018-03-17T14:11:32.798Z,-0.20
2018-03-17T14:13:59.827Z,-0.30
2018-03-17T14:16:27.823Z,0.10
2018-03-17T14:18:54.572Z,0.10
2018-03-17T14:21:21.624Z,0.10
2018-03-17T14:23:48.896Z,0.20
2018-03-17T14:26:18.476Z,0.10
2018-03-17T14:28:45.343Z,0.10
2018-03-17T14:31:12.703Z,-0.30
2018-03-17T14:33:40.682Z,-0.40
2018-03-17T14:36:08.089Z,-0.60
2018-03-17T14:38:34.887Z,-0.60
2018-03-17T14:41:01.837Z,-0.60
2018-03-17T14:43:28.587Z,-0.60
2018-03-17T14:45:55.435Z,-0.60
2018-03-17T14:48:23.003Z,-0.50
2018-03-17T14:50:49.851Z,-0.70
2018-03-17T14:53:17.630Z,-1.10
2018-03-17T14:55:44.345Z,-1.00
2018-03-17T14:58:11.933Z,-1.30
2018-03-17T15:00:39.299Z,-1.30
2018-03-17T15:03:06.041Z,-1.30
2018-03-17T15:05:32.781Z,-1.30
2018-03-17T15:07:59.968Z,-1.20
2018-03-17T15:10:26.687Z,-1.50
2018-03-17T15:12:53.845Z,-1.50
2018-03-17T15:15:21.694Z,-1.40
2018-03-17T15:17:48.463Z,-1.60
2018-03-17T15:20:16.131Z,-1.50
2018-03-17T15:22:43.493Z,-1.60
2018-03-17T15:25:10.444Z,-1.60
2018-03-17T15:27:37.393Z,-1.70
2018-03-17T15:30:04.344Z,-1.60
2018-03-17T15:32:32.627Z,-1.50
2018-03-17T15:34:59.376Z,-1.50
2018-03-17T15:37:26.122Z,-1.30
2018-03-17T15:39:54.810Z,-1.60
2018-03-17T15:42:21.564Z,-1.60
2018-03-17T15:44:48.485Z,-1.70
2018-03-17T15:47:15.365Z,-1.70
2018-03-17T15:49:42.312Z,-1.70
2018-03-17T15:52:09.671Z,-2.00
2018-03-17T15:54:36.587Z,-2.00
2018-03-17T15:57:03.377Z,-2.00
2018-03-17T15:59:30.168Z,-1.90
2018-03-17T16:01:57.272Z,-1.80
2018-03-17T16:04:24.054Z,-1.80
2018-03-17T16:06:51.381Z,-1.90
2018-03-17T16:09:18.126Z,-2.10
2018-03-17T16:11:45.077Z,-2.10
2018-03-17T16:14:12.100Z,-2.30
2018-03-17T16:16:39.550Z,-2.30
2018-03-17T16:19:06.978Z,-2.40
2018-03-17T16:21:33.800Z,-2.40
2018-03-17T16:24:01.111Z,-2.60
2018-03-17T16:26:29.023Z,-2.80
2018-03-17T16:28:56.298Z,-2.90
2018-03-17T16:31:23.348Z,-2.80
2018-03-17T16:33:50.709Z,-3.20
2018-03-17T16:36:17.453Z,-3.40
2018-03-17T16:38:44.381Z,-3.50
2018-03-17T16:41:11.562Z,-3.60
2018-03-17T16:43:38.309Z,-3.70
2018-03-17T16:46:05.467Z,-3.80
2018-03-17T16:48:32.220Z,-3.90
2018-03-17T16:50:59.166Z,-4.00
2018-03-17T16:53:26.113Z,-4.10
2018-03-17T16:55:53.257Z,-4.20
2018-03-17T16:58:20.646Z,-4.30
2018-03-17T17:00:47.470Z,-4.40
2018-03-17T17:03:15.913Z,-4.50
2018-03-17T17:05:44.042Z,-4.60
2018-03-17T17:08:13.246Z,-4.70
2018-03-17T17:10:40.961Z,-4.70
2018-03-17T17:13:08.579Z,-4.90
2018-03-17T17:15:35.636Z,-4.90
2018-03-17T17:18:02.531Z,-5.00
2018-03-17T17:20:29.196Z,-5.20
2018-03-17T17:22:56.901Z,-5.40
2018-03-17T17:25:23.710Z,-5.40
2018-03-17T17:27:50.494Z,-5.60
2018-03-17T17:30:18.236Z,-5.70
2018-03-17T17:32:45.291Z,-5.80
2018-03-17T17:35:13.601Z,-6.00
2018-03-17T17:37:40.756Z,-6.10
2018-03-17T17:40:07.464Z,-6.20
2018-03-17T17:42:34.433Z,-6.30
2018-03-17T17:45:01.803Z,-6.40
2018-03-17T17:47:28.671Z,-6.60
2018-03-17T17:49:56.119Z,-6.70
2018-03-17T17:52:23.089Z,-6.70
2018-03-17T17:54:49.769Z,-6.80
2018-03-17T17:57:16.468Z,-6.90
2018-03-17T17:59:43.300Z,-7.00
2018-03-17T18:02:10.742Z,-7.20
2018-03-17T18:04:37.506Z,-7.20
2018-03-17T18:07:05.297Z,-7.30
2018-03-17T18:09:32.699Z,-7.40
2018-03-17T18:11:59.507Z,-7.40
2018-03-17T18:14:26.564Z,-7.50
2018-03-17T18:16:54.230Z,-7.50
2018-03-17T18:19:21.056Z,-7.70
2018-03-17T18:21:48.847Z,-7.90
2018-03-17T18:24:16.515Z,-7.90
2018-03-17T18:26:43.876Z,-8.00
2018-03-17T18:29:11.036Z,-8.00
2018-03-17T18:31:38.289Z,-8.10
2018-03-17T18:34:05.961Z,-8.20
2018-03-17T18:36:32.806Z,-8.20
2018-03-17T18:39:00.479Z,-8.40
2018-03-17T18:41:28.469Z,-8.40
2018-03-17T18:43:56.162Z,-8.50
2018-03-17T18:46:23.902Z,-8.60
2018-03-17T18:48:51.022Z,-8.60
2018-03-17T18:51:18.203Z,-8.70
2018-03-17T18:53:44.952Z,-8.60
2018-03-17T18:56:13.455Z,-8.60
2018-03-17T18:58:40.798Z,-8.70
2018-03-17T19:01:08.662Z,-8.90
2018-03-17T19:03:35.410Z,-8.90
2018-03-17T19:06:03.495Z,-9.00
2018-03-17T19:08:31.611Z,-9.00
2018-03-17T19:10:59.847Z,-9.10
2018-03-17T19:13:29.663Z,-9.20
2018-03-17T19:15:57.581Z,-9.20
2018-03-17T19:18:25.315Z,-9.20
2018-03-17T19:20:53.178Z,-9.30
2018-03-17T19:23:20.843Z,-9.20
2018-03-17T19:25:49.456Z,-9.40
2018-03-17T19:28:18.215Z,-9.50
2018-03-17T19:30:44.898Z,-9.50
2018-03-17T19:33:11.904Z,-9.50
2018-03-17T19:35:39.394Z,-9.50
2018-03-17T19:38:08.517Z,-9.60
2018-03-17T19:40:37.500Z,-9.60
2018-03-17T19:43:06.824Z,-9.60
2018-03-17T19:45:33.995Z,-9.50
2018-03-17T19:48:00.878Z,-9.60
2018-03-17T19:50:28.462Z,-9.70
2018-03-17T19:52:58.397Z,-9.70
2018-03-17T19:55:25.128Z,-9.70
2018-03-17T19:57:53.165Z,-9.70
2018-03-17T20:00:19.824Z,-9.80
2018-03-17T20:02:46.700Z,-9.90
2018-03-17T20:05:14.878Z,-10.00
2018-03-17T20:07:42.033Z,-10.00
2018-03-17T20:10:08.784Z,-10.00
2018-03-17T20:12:36.950Z,-10.00
2018-03-17T20:15:04.528Z,-10.10
2018-03-17T20:17:31.271Z,-10.10
2018-03-17T20:19:59.356Z,-10.20
2018-03-17T20:22:26.071Z,-10.20
2018-03-17T20:24:52.945Z,-10.10
2018-03-17T20:27:19.877Z,-10.20
2018-03-17T20:29:48.157Z,-10.30
2018-03-17T20:32:15.845Z,-10.30
2018-03-17T20:34:43.942Z,-10.40
2018-03-17T20:37:10.776Z,-10.40
2018-03-17T20:39:38.951Z,-10.40
2018-03-17T20:42:07.838Z,-10.50
2018-03-17T20:44:35.340Z,-10.50
2018-03-17T20:47:02.055Z,-10.60
2018-03-17T20:49:29.933Z,-10.60
2018-03-17T20:51:56.781Z,-10.60
2018-03-17T20:54:23.613Z,-10.70
2018-03-17T20:56:50.581Z,-10.70
2018-03-17T20:59:17.531Z,-10.70
2018-03-17T21:01:44.278Z,-10.70
2018-03-17T21:04:11.787Z,-10.60
2018-03-17T21:06:40.055Z,-10.70
2018-03-17T21:09:07.039Z,-10.80
2018-03-17T21:11:33.767Z,-10.90
2018-03-17T21:14:00.534Z,-10.80
2018-03-17T21:16:27.490Z,-10.90
2018-03-17T21:18:54.984Z,-10.90
2018-03-17T21:21:22.241Z,-11.00
2018-03-17T21:23:49.263Z,-10.90
2018-03-17T21:26:16.489Z,-10.90
2018-03-17T21:28:43.505Z,-11.00
2018-03-17T21:31:11.940Z,-10.90
2018-03-17T21:33:38.737Z,-11.00
2018-03-17T21:36:06.302Z,-11.00
2018-03-17T21:38:33.138Z,-10.90
2018-03-17T21:41:00.819Z,-10.80
2018-03-17T21:43:27.973Z,-10.90
2018-03-17T21:45:57.461Z,-11.00
2018-03-17T21:48:25.385Z,-11.10
2018-03-17T21:50:52.823Z,-11.20
2018-03-17T21:53:21.711Z,-11.20
2018-03-17T21:55:49.649Z,-11.20
2018-03-17T21:58:16.805Z,-11.20
2018-03-17T22:00:43.542Z,-11.20
2018-03-17T22:03:11.139Z,-11.30
2018-03-17T22:05:38.607Z,-11.30
2018-03-17T22:10:38.788Z,-11.40
2018-03-17T22:13:05.720Z,-11.40
2018-03-17T22:15:33.511Z,-11.20
2018-03-17T22:18:00.882Z,-11.30
2018-03-17T22:20:28.720Z,-11.30
2018-03-17T22:22:55.687Z,-11.30
2018-03-17T22:25:23.392Z,-11.30
2018-03-17T22:27:51.307Z,-11.40
2018-03-17T22:30:18.638Z,-11.50
2018-03-17T22:32:45.405Z,-11.50
2018-03-17T22:35:13.944Z,-11.60
2018-03-17T22:37:40.939Z,-11.60
2018-03-17T22:40:08.413Z,-11.60
2018-03-17T22:42:35.223Z,-11.60
2018-03-17T22:45:01.882Z,-11.60
2018-03-17T22:47:29.325Z,-11.60
2018-03-17T22:49:55.976Z,-11.60
2018-03-17T22:52:22.710Z,-11.70
2018-03-17T22:54:50.102Z,-11.70
2018-03-17T22:57:17.000Z,-11.70
2018-03-17T22:59:44.744Z,-11.70
2018-03-17T23:02:12.168Z,-11.70
2018-03-17T23:07:16.045Z,-11.80
2018-03-17T23:12:15.089Z,-11.80
2018-03-17T23:14:42.720Z,-11.90
2018-03-17T23:17:09.893Z,-12.10
2018-03-17T23:19:37.408Z,-12.10
2018-03-17T23:22:04.479Z,-12.00
2018-03-17T23:24:32.265Z,-12.10
2018-03-17T23:26:59.382Z,-12.20
2018-03-17T23:29:26.604Z,-12.10
2018-03-17T23:31:55.033Z,-12.20
2018-03-17T23:34:21.961Z,-12.20
2018-03-17T23:36:53.714Z,-12.00
2018-03-17T23:39:21.393Z,-12.10
2018-03-17T23:41:48.150Z,-12.10
2018-03-17T23:44:15.328Z,-12.20
2018-03-17T23:46:43.256Z,-12.20
2018-03-17T23:49:10.490Z,-12.30
2018-03-17T23:51:37.949Z,-12.30
2018-03-17T23:54:06.537Z,-12.30
2018-03-17T23:56:34.183Z,-12.20
2018-03-17T23:59:01.025Z,-12.20
